Latest Weather Observations for Kalumburu

IDW60801

Issued at 11:03 pm WST Friday 28 July 2017 (issued every 30 minutes, with the page automatically refreshed every 10 minutes)

About weather observations | Map of weather stations | Latest weather observations for WA | Other Formats
Station Details ID: 001019 Name: KALUMBURU Lat: -14.30 Lon: 126.65 Height: 23.0 m
Data from the previous 72 hours. | See also: Recent months at Kalumburu
Date/Time
WST
Temp
°C
App
Temp
°C
Dew
Point
°C
Rel
Hum
%
Delta-T
°C
Wind Press
QNH
hPa
Press
MSL
hPa
Rain since
9am
mm
Dir  Spd
km/h
Gust
km/h
Spd
kts
Gust
kts
28/11:00pm 19.8 21.2 17.4 86 1.5 SE 6 7 3 4 1016.0 1015.9 0.0
28/10:30pm 19.9 21.9 16.9 83 1.8 E 2 6 1 3 1015.9 1015.8 0.0
28/10:00pm 20.7 23.4 17.7 83 1.8 CALM 0 0 0 0 1015.9 1015.8 0.0
28/09:30pm 21.4 24.0 17.4 78 2.5 CALM 0 0 0 0 1016.1 1016.0 0.0
28/09:00pm 23.0 24.8 18.3 75 2.9 NW 6 7 3 4 1016.1 1016.0 0.0
28/08:30pm 23.8 25.6 18.7 73 3.2 NNW 7 9 4 5 1015.9 1015.8 0.0
28/08:00pm 24.5 26.3 18.2 68 4.0 NW 6 11 3 6 1015.8 1015.7 0.0
28/07:30pm 25.3 26.4 18.0 64 4.6 N 9 13 5 7 1015.5 1015.4 0.0
28/07:00pm 25.7 26.6 17.6 61 5.1 N 9 11 5 6 1015.1 1015.0 0.0
28/06:30pm 26.5 26.3 16.7 55 6.1 N 13 19 7 10 1014.6 1014.5 0.0
28/06:00pm 27.3 27.1 16.6 52 6.6 N 13 20 7 11 1014.1 1014.0 0.0
28/05:30pm 27.6 27.4 15.6 48 7.3 N 11 15 6 8 1013.6 1013.5 0.0
28/05:00pm 28.5 27.9 16.7 48 7.4 NNW 15 22 8 12 1013.2 1013.1 0.0
28/04:30pm 29.6 29.6 18.1 50 7.4 NNW 15 24 8 13 1012.8 1012.7 0.0
28/04:00pm 30.0 29.8 18.4 49 7.5 NNW 17 28 9 15 1012.6 1012.5 0.0
28/03:30pm 30.8 30.2 17.5 45 8.5 NW 17 26 9 14 1012.3 1012.2 0.0
28/03:00pm 31.3 29.9 16.5 41 9.3 NW 19 28 10 15 1012.1 1012.0 0.0
28/02:30pm 32.1 29.8 14.7 35 10.7 NW 20 32 11 17 1012.0 1011.9 0.0
28/02:00pm 34.9 32.9 8.6 20 14.9 ENE 9 19 5 10 1012.1 1012.0 0.0
28/01:30pm 34.7 33.0 9.9 22 14.3 E 9 22 5 12 1012.3 1012.2 0.0
28/01:00pm 34.2 31.6 9.4 22 14.2 ENE 13 20 7 11 1012.8 1012.7 0.0
28/12:30pm 33.8 30.8 9.1 22 14.0 ENE 15 24 8 13 1013.4 1013.3 0.0
28/12:00pm 33.9 31.5 9.9 23 13.8 E 13 20 7 11 1013.8 1013.7 0.0
28/11:30am 33.3 30.5 10.0 24 13.4 E 15 26 8 14 1014.2 1014.1 0.0
28/11:00am 33.0 29.9 10.4 25 13.0 ENE 17 32 9 17 1014.8 1014.7 0.0
28/10:30am 33.0 30.3 10.4 25 13.0 E 15 24 8 13 1015.2 1015.1 0.0
28/10:00am 32.2 29.5 10.3 26 12.6 ESE 15 24 8 13 1015.5 1015.4 0.0
28/09:30am 31.0 27.9 10.4 28 11.8 ESE 17 26 9 14 1015.7 1015.6 0.0
28/09:00am 30.2 26.6 9.7 28 11.5 ESE 19 30 10 16 1015.7 1015.6 0.0
28/08:30am 29.2 26.5 10.3 31 10.7 ESE 15 28 8 15 1015.9 1015.8 0.0
28/08:00am 25.4 26.5 16.5 58 5.5 S 6 9 3 5 1016.1 1016.0 0.0
28/07:30am 23.5 26.8 19.2 77 2.7 CALM 0 0 0 0 1015.9 1015.8 0.0
28/07:00am 20.5 23.6 18.6 89 1.2 CALM 0 0 0 0 1015.7 1015.6 0.0
28/06:30am 18.0 20.2 16.5 91 0.9 CALM 0 0 0 0 1015.4 1015.3 0.0
28/06:00am 18.0 20.2 16.5 91 0.9 CALM 0 0 0 0 1015.1 1015.0 0.0
28/05:30am 18.2 19.7 16.7 91 0.9 SSW 4 9 2 5 1015.0 1014.9 0.0
28/05:00am 19.2 20.8 17.9 92 0.8 SSW 6 9 3 5 1014.9 1014.8 0.0
28/04:30am 18.1 19.2 16.6 91 0.9 S 6 9 3 5 1014.8 1014.7 0.0
28/04:00am 17.9 18.9 16.4 91 0.9 S 6 7 3 4 1014.7 1014.6 0.0
28/03:30am 17.7 19.7 15.9 89 1.1 CALM 0 0 0 0 1014.6 1014.5 0.0
28/03:00am 18.3 20.5 16.6 90 1.0 CALM 0 0 0 0 1014.5 1014.4 0.0
28/02:30am 18.7 21.2 17.2 91 0.9 CALM 0 0 0 0 1014.7 1014.6 0.0
28/02:00am 18.8 21.3 17.3 91 0.9 CALM 0 0 0 0 1014.8 1014.7 0.0
28/01:30am 18.6 20.8 16.6 88 1.2 CALM 0 0 0 0 1015.0 1014.9 0.0
28/01:00am 18.7 21.1 16.9 89 1.1 CALM 0 0 0 0 1015.4 1015.3 0.0
28/12:30am 18.7 20.9 16.5 87 1.3 CALM 0 0 0 0 1015.5 1015.4 0.0
28/12:00am 19.4 22.0 17.4 88 1.2 CALM 0 0 0 0 1015.6 1015.5 0.0
 
Date/Time
WST
Temp
°C
App
Temp
°C
Dew
Point
°C
Rel
Hum
%
Delta-T
°C
Wind Press
QNH
hPa
Press
MSL
hPa
Rain since
9am
mm
Dir  Spd
km/h
Gust
km/h
Spd
kts
Gust
kts
27/11:30pm 19.5 22.1 17.5 88 1.2 CALM 0 0 0 0 1015.7 1015.6 0.0
27/11:00pm 19.8 22.6 17.9 89 1.2 CALM 0 0 0 0 1015.5 1015.4 0.0
27/10:30pm 19.9 22.6 17.7 87 1.4 CALM 0 0 0 0 1015.4 1015.3 0.0
27/10:00pm 20.3 23.2 18.1 87 1.4 CALM 0 0 0 0 1015.5 1015.4 0.0
27/09:30pm 20.5 23.4 18.1 86 1.5 CALM 0 0 0 0 1015.5 1015.4 0.0
27/09:00pm 21.2 24.0 18.0 82 2.0 CALM 0 0 0 0 1015.5 1015.4 0.0
27/08:30pm 22.5 24.7 19.3 82 2.0 WNW 6 7 3 4 1015.4 1015.3 0.0
27/08:00pm 22.8 25.7 19.8 83 1.9 WNW 4 7 2 4 1015.1 1015.0 0.0
27/07:30pm 23.0 26.5 19.6 81 2.2 CALM 0 0 0 0 1014.8 1014.7 0.0
27/07:00pm 23.9 26.5 19.2 75 3.0 WNW 4 6 2 3 1014.3 1014.2 0.0
27/06:30pm 25.1 28.0 20.6 76 2.9 WNW 6 9 3 5 1013.8 1013.7 0.0
27/06:00pm 25.7 28.5 20.5 73 3.4 NW 6 9 3 5 1013.4 1013.3 0.0
27/05:30pm 26.3 28.6 19.9 68 4.2 NW 7 11 4 6 1013.3 1013.2 0.0
27/05:00pm 27.2 28.5 19.3 62 5.1 NNW 11 19 6 10 1013.0 1012.9 0.0
27/04:30pm 28.2 28.6 18.9 57 6.0 NNW 15 22 8 12 1012.8 1012.7 0.0
27/04:00pm 29.2 28.8 18.9 53 6.7 NNW 19 26 10 14 1012.5 1012.4 0.0
27/03:30pm 30.5 30.6 19.2 51 7.4 NNW 17 24 9 13 1012.2 1012.1 0.0
27/03:00pm 30.9 30.5 18.9 48 7.8 NNW 19 24 10 13 1012.1 1012.0 0.0
27/02:30pm 31.5 31.1 18.1 44 8.6 NNW 17 24 9 13 1012.0 1011.9 0.0
27/02:00pm 32.0 30.8 17.1 41 9.5 NW 19 26 10 14 1012.0 1011.9 0.0
27/01:30pm 31.7 29.9 16.0 38 9.8 NW 20 30 11 16 1012.2 1012.1 0.0
27/01:00pm 35.1 34.1 13.3 27 13.3 ENE 11 20 6 11 1012.5 1012.4 0.0
27/12:30pm 34.4 32.2 12.1 26 13.3 E 15 24 8 13 1012.9 1012.8 0.0
27/12:00pm 34.5 32.5 12.8 27 13.1 NE 15 35 8 19 1013.3 1013.2 0.0
27/11:30am 34.3 32.5 13.2 28 12.8 ENE 15 26 8 14 1013.6 1013.5 0.0
27/11:00am 33.6 31.7 13.1 29 12.4 ENE 15 24 8 13 1014.0 1013.9 0.0
27/10:30am 32.8 30.2 11.9 28 12.3 NE 17 24 9 13 1014.6 1014.5 0.0
27/10:00am 32.1 29.3 11.3 28 12.1 E 17 26 9 14 1014.9 1014.8 0.0
27/09:30am 31.9 29.4 12.2 30 11.6 E 17 28 9 15 1015.2 1015.1 0.0
27/09:00am 30.8 28.0 11.2 30 11.3 ESE 17 35 9 19 1015.5 1015.4 0.0
27/08:30am 28.6 28.0 11.6 34 9.8 WSW 6 9 3 5 1015.8 1015.7 0.0
27/08:00am 26.2 26.7 14.0 47 7.2 NW 4 7 2 4 1015.7 1015.6 0.0
27/07:30am 23.9 24.2 14.6 56 5.5 NNW 6 9 3 5 1015.5 1015.4 0.0
27/07:00am 21.5 21.1 15.1 67 3.8 S 11 17 6 9 1014.8 1014.7 0.0
27/06:30am 20.4 19.9 15.0 71 3.2 SSW 11 19 6 10 1014.5 1014.4 0.0
27/06:00am 20.0 19.9 15.0 73 2.9 SSW 9 15 5 8 1014.3 1014.2 0.0
27/05:30am 19.6 19.7 15.5 77 2.4 SSW 9 15 5 8 1013.9 1013.8 0.0
27/05:00am 17.0 17.7 14.6 86 1.4 SSW 4 7 2 4 1013.6 1013.5 0.0
27/04:30am 16.5 17.9 14.3 87 1.3 CALM 0 6 0 3 1013.5 1013.4 0.0
27/04:00am 17.2 17.3 14.5 84 1.6 S 7 11 4 6 1013.6 1013.5 0.0
27/03:30am 17.0 17.3 15.0 88 1.2 S 7 9 4 5 1013.5 1013.4 0.0
27/03:00am 16.8 17.1 14.6 87 1.3 S 6 9 3 5 1013.5 1013.4 0.0
27/02:30am 17.5 18.2 15.5 88 1.2 S 6 7 3 4 1013.5 1013.4 0.0
27/02:00am 16.6 16.8 14.2 86 1.4 SSE 6 9 3 5 1013.5 1013.4 0.0
27/01:30am 17.3 17.9 15.3 88 1.2 S 6 9 3 5 1013.7 1013.6 0.0
27/01:00am 17.5 19.3 15.5 88 1.2 CALM 0 0 0 0 1013.8 1013.7 0.0
27/12:30am 17.8 19.7 15.8 88 1.2 CALM 0 0 0 0 1014.0 1013.9 0.0
27/12:00am 18.2 19.4 16.0 87 1.3 S 4 9 2 5 1014.3 1014.2 0.0
 
Date/Time
WST
Temp
°C
App
Temp
°C
Dew
Point
°C
Rel
Hum
%
Delta-T
°C
Wind Press
QNH
hPa
Press
MSL
hPa
Rain since
9am
mm
Dir  Spd
km/h
Gust
km/h
Spd
kts
Gust
kts
26/11:30pm 18.3 20.3 15.9 86 1.4 CALM 0 0 0 0 1014.3 1014.2 0.0
26/11:00pm 18.9 21.1 16.5 86 1.4 CALM 0 0 0 0 1014.5 1014.4 0.0
26/10:30pm 19.2 21.6 17.0 87 1.3 CALM 0 0 0 0 1014.4 1014.3 0.0
26/10:00pm 19.5 21.8 16.7 84 1.7 CALM 0 0 0 0 1014.4 1014.3 0.0
26/09:30pm 20.1 22.6 17.3 84 1.7 CALM 0 6 0 3 1014.4 1014.3 0.0
26/09:00pm 20.3 22.4 17.3 83 1.8 SSE 2 6 1 3 1014.3 1014.2 0.0
26/08:30pm 20.4 22.8 17.0 81 2.1 CALM 0 0 0 0 1014.2 1014.1 0.0
26/08:00pm 21.4 23.9 17.2 77 2.6 CALM 0 0 0 0 1014.0 1013.9 0.0
26/07:30pm 22.0 24.7 17.8 77 2.6 CALM 0 0 0 0 1013.8 1013.7 0.0
26/07:00pm 22.9 25.7 18.0 74 3.1 CALM 0 0 0 0 1013.3 1013.2 0.0
26/06:30pm 24.2 26.8 18.4 70 3.7 W 2 6 1 3 1012.9 1012.8 0.0
26/06:00pm 26.3 28.1 18.7 63 4.9 NW 7 11 4 6 1012.5 1012.4 0.0
26/05:30pm 27.1 28.6 18.1 58 5.7 NW 7 11 4 6 1012.0 1011.9 0.0
26/05:00pm 28.4 29.1 17.0 50 7.2 NW 9 15 5 8 1011.7 1011.6 0.0
26/04:30pm 29.8 29.9 16.6 45 8.3 NW 11 17 6 9 1011.4 1011.3 0.0
26/04:00pm 31.2 30.9 16.4 41 9.3 WNW 13 19 7 10 1011.1 1011.0 0.0
26/03:30pm 31.9 31.4 15.8 38 10.0 NW 13 19 7 10 1011.0 1010.9 0.0
26/03:00pm 32.4 31.2 14.1 33 11.2 NNW 13 24 7 13 1011.0 1010.9 0.0
26/02:30pm 35.0 33.6 10.8 23 14.2 S 9 20 5 11 1011.1 1011.0 0.0
26/02:00pm 35.2 33.0 10.9 23 14.3 E 13 24 7 13 1011.3 1011.2 0.0
26/01:30pm 34.8 32.4 9.9 22 14.4 NE 13 26 7 14 1011.5 1011.4 0.0
26/01:00pm 35.1 32.5 9.5 21 14.7 ENE 13 22 7 12 1011.8 1011.7 0.0
26/12:30pm 34.0 31.0 9.3 22 14.1 ENE 15 28 8 15 1012.4 1012.3 0.0
26/12:00pm 34.3 30.6 9.5 22 14.2 NE 19 28 10 15 1013.0 1012.9 0.0
26/11:30am 33.9 30.5 9.2 22 14.0 NE 17 28 9 15 1013.5 1013.4 0.0
26/11:00am 33.3 29.8 8.7 22 13.8 ENE 17 32 9 17 1013.8 1013.7 0.0
26/10:30am 32.8 29.4 7.6 21 13.9 E 15 26 8 14 1014.1 1014.0 0.0
26/10:00am 32.7 28.6 4.5 17 14.8 E 15 28 8 15 1014.6 1014.5 0.0
26/09:30am 31.4 26.3 4.2 18 14.1 ESE 20 35 11 19 1014.9 1014.8 0.0
26/09:00am 30.2 25.4 2.5 17 13.8 ESE 17 32 9 17 1015.1 1015.0 0.0
26/08:30am 29.2 24.9 3.2 19 13.1 SE 15 28 8 15 1015.2 1015.1 0.0
26/08:00am 25.7 25.2 7.8 32 9.5 CALM 0 0 0 0 1015.4 1015.3 0.0
26/07:30am 21.7 21.8 10.2 48 6.3 CALM 0 0 0 0 1015.1 1015.0 0.0
26/07:00am 18.6 18.9 10.9 61 4.2 CALM 0 6 0 3 1014.9 1014.8 0.0
26/06:30am 14.6 14.7 10.2 75 2.3 CALM 0 0 0 0 1014.6 1014.5 0.0
26/06:00am 13.9 13.7 9.1 73 2.4 CALM 0 6 0 3 1014.1 1014.0 0.0
26/05:30am 14.1 13.5 9.1 72 2.5 ESE 2 6 1 3 1013.8 1013.7 0.0
26/05:00am 14.6 14.4 9.0 69 2.9 CALM 0 0 0 0 1013.5 1013.4 0.0
26/04:30am 15.5 15.3 9.0 65 3.3 CALM 0 0 0 0 1013.2 1013.1 0.0
26/04:00am 17.0 16.5 9.4 61 4.0 WNW 2 7 1 4 1012.9 1012.8 0.0
26/03:30am 16.1 14.6 8.6 61 3.8 N 6 9 3 5 1012.8 1012.7 0.0
26/03:00am 19.0 17.1 7.4 47 5.9 SSW 7 11 4 6 1012.7 1012.6 0.0
26/02:30am 20.3 18.2 8.3 46 6.3 SSW 9 15 5 8 1012.6 1012.5 0.0
26/02:00am 16.2 15.1 10.1 67 3.2 SSW 6 7 3 4 1012.7 1012.6 0.0
26/01:30am 16.2 16.3 10.1 67 3.2 CALM 0 0 0 0 1012.9 1012.8 0.0
26/01:00am 16.2 16.3 10.3 68 3.1 CALM 0 0 0 0 1013.3 1013.2 0.0
26/12:30am 15.9 16.0 10.2 69 3.0 CALM 0 7 0 4 1013.4 1013.3 0.0
26/12:00am 16.6 16.7 10.2 66 3.4 CALM 0 0 0 0 1013.5 1013.4 0.0
 
Date/Time
WST
Temp
°C
App
Temp
°C
Dew
Point
°C
Rel
Hum
%
Delta-T
°C
Wind Press
QNH
hPa
Press
MSL
hPa
Rain since
9am
mm
Dir  Spd
km/h
Gust
km/h
Spd
kts
Gust
kts
25/11:30pm 17.0 17.2 10.4 65 3.5 CALM 0 0 0 0 1013.6 1013.5 0.0

Other Formats:

Comma delimited format used in spreadsheet applications
http://www.bom.gov.au/fwo/IDW60801/IDW60801.94100.axf

JavaScript Object Notation format (JSON) in row-major order
http://www.bom.gov.au/fwo/IDW60801/IDW60801.94100.json